createdAt,value
2022-11-03T17:02:03.166Z,198.00
2022-11-03T17:03:35.538Z,177.25
2022-11-03T17:05:07.805Z,187.25
2022-11-03T17:06:39.498Z,175.25
2022-11-03T17:08:31.956Z,161.25
2022-11-03T17:10:04.438Z,160.75
2022-11-03T17:11:36.450Z,157.75
2022-11-03T17:13:10.140Z,155.00
2022-11-03T17:14:42.273Z,141.00
2022-11-03T17:16:13.987Z,145.75
2022-11-03T17:17:45.778Z,138.50
2022-11-03T17:19:17.642Z,159.25
2022-11-03T17:20:49.366Z,151.75
2022-11-03T17:22:22.421Z,154.25
2022-11-03T17:23:54.104Z,154.00
2022-11-03T17:25:25.824Z,172.50
2022-11-03T17:27:05.524Z,162.00
2022-11-03T17:28:37.315Z,164.25
2022-11-03T17:30:30.020Z,163.00
2022-11-03T17:32:05.977Z,185.00
2022-11-03T17:33:37.750Z,180.25
2022-11-03T17:35:21.395Z,184.00
2022-11-03T17:36:53.179Z,194.25
2022-11-03T17:38:24.898Z,184.00
2022-11-03T17:39:56.763Z,183.25
2022-11-03T17:41:28.523Z,171.50
2022-11-03T17:43:00.400Z,187.50
2022-11-03T17:44:32.091Z,189.75
2022-11-03T17:46:04.348Z,184.25
2022-11-03T17:47:36.877Z,187.50
2022-11-03T17:49:09.802Z,190.00
2022-11-03T17:50:45.405Z,179.00
2022-11-03T17:52:28.032Z,177.75
2022-11-03T17:54:00.991Z,189.00
2022-11-03T17:55:32.775Z,190.67
2022-11-03T17:57:04.534Z,198.33
2022-11-03T17:58:40.512Z,190.33
2022-11-03T18:00:16.844Z,211.33
2022-11-03T18:01:48.604Z,202.00
2022-11-03T18:03:21.167Z,350.25
2022-11-03T18:04:55.774Z,331.50
2022-11-03T18:06:27.602Z,313.00
2022-11-03T18:08:00.578Z,267.75
2022-11-03T18:09:32.274Z,242.75
2022-11-03T18:11:04.221Z,233.00
2022-11-03T18:12:56.110Z,243.67
2022-11-03T18:14:28.162Z,225.33
2022-11-03T18:16:01.954Z,209.67
2022-11-03T18:17:33.748Z,202.00
2022-11-03T18:19:05.459Z,197.67
2022-11-03T18:20:37.167Z,215.67
2022-11-03T18:22:10.055Z,221.33
2022-11-03T18:23:42.599Z,212.00
2022-11-03T18:25:15.878Z,214.67
2022-11-03T18:26:48.326Z,215.00
2022-11-03T18:28:20.293Z,209.67
2022-11-03T18:29:52.440Z,202.00
2022-11-03T18:31:26.935Z,186.33
2022-11-03T18:32:58.672Z,187.33
2022-11-03T18:34:30.563Z,196.33
2022-11-03T18:36:03.888Z,204.67
2022-11-03T18:37:35.786Z,197.67
2022-11-03T18:39:07.741Z,186.00
2022-11-03T18:40:39.454Z,187.00
2022-11-03T18:42:15.254Z,181.75
2022-11-03T18:43:47.023Z,180.25
2022-11-03T18:45:19.975Z,192.25
2022-11-03T18:46:52.189Z,192.25
2022-11-03T18:48:24.079Z,187.75
2022-11-03T18:49:55.873Z,193.33
2022-11-03T18:51:27.758Z,197.67
2022-11-03T18:52:59.826Z,194.00
2022-11-03T18:54:32.187Z,194.33
2022-11-03T18:56:04.384Z,188.25
2022-11-03T18:57:36.616Z,189.25
2022-11-03T18:59:23.166Z,183.50
2022-11-03T19:00:55.265Z,165.50
2022-11-03T19:02:28.318Z,176.50
2022-11-03T19:04:00.507Z,159.50
2022-11-03T19:05:33.686Z,168.25
2022-11-03T19:07:08.305Z,176.75
2022-11-03T19:08:40.650Z,172.25
2022-11-03T19:10:17.700Z,174.50
2022-11-03T19:11:49.499Z,167.00
2022-11-03T19:13:29.269Z,207.00
2022-11-03T19:15:00.979Z,165.25
2022-11-03T19:16:32.733Z,164.50
2022-11-03T19:18:05.471Z,160.00
2022-11-03T19:21:15.691Z,167.50
2022-11-03T19:22:47.612Z,171.75
2022-11-03T19:24:19.913Z,161.75
2022-11-03T19:25:53.891Z,177.00
2022-11-03T19:27:26.655Z,172.25
2022-11-03T19:29:00.475Z,168.25
2022-11-03T19:30:32.400Z,161.00
2022-11-03T19:32:04.268Z,163.75
2022-11-03T19:33:36.407Z,164.25
2022-11-03T19:35:19.431Z,166.25
2022-11-03T19:36:51.771Z,163.25
2022-11-03T19:38:23.668Z,161.25
2022-11-03T19:39:57.132Z,168.75
2022-11-03T19:41:47.903Z,171.00
2022-11-03T19:43:19.624Z,211.33
2022-11-03T19:44:52.942Z,179.00
2022-11-03T19:46:24.776Z,152.50
2022-11-03T19:48:23.196Z,161.75
2022-11-03T19:49:52.954Z,154.50
2022-11-03T19:51:24.844Z,157.00
2022-11-03T19:53:04.097Z,151.00
2022-11-03T19:54:35.856Z,166.75
2022-11-03T19:56:08.111Z,155.25
2022-11-03T19:57:40.047Z,162.50
2022-11-03T19:59:12.702Z,170.25
2022-11-03T20:00:44.974Z,164.50
2022-11-03T20:02:16.893Z,158.75
2022-11-03T20:03:49.057Z,166.25
2022-11-03T20:05:21.189Z,161.00
2022-11-03T20:06:53.420Z,157.75
2022-11-03T20:08:27.345Z,154.50
2022-11-03T20:10:00.270Z,167.75
2022-11-03T20:11:33.787Z,211.00
2022-11-03T20:13:08.202Z,165.75
2022-11-03T20:14:40.165Z,166.25
2022-11-03T20:16:12.987Z,165.50
2022-11-03T20:17:45.508Z,159.75
2022-11-03T20:19:17.199Z,169.50
2022-11-03T20:20:48.916Z,160.25
2022-11-03T20:22:27.106Z,167.50
2022-11-03T20:23:58.862Z,166.75
2022-11-03T20:25:35.264Z,157.00
2022-11-03T20:27:10.304Z,156.50
2022-11-03T20:28:42.283Z,146.25
2022-11-03T20:30:18.007Z,162.50
2022-11-03T20:31:49.731Z,141.25
2022-11-03T20:33:22.730Z,155.25
2022-11-03T20:34:54.703Z,154.25
2022-11-03T20:36:27.265Z,144.50
2022-11-03T20:37:59.150Z,143.50
2022-11-03T20:39:31.083Z,147.75
2022-11-03T20:41:04.349Z,146.75
2022-11-03T20:42:36.017Z,155.00
2022-11-03T20:44:09.258Z,166.00
2022-11-03T20:45:41.371Z,167.50
2022-11-03T20:47:13.876Z,165.25
2022-11-03T20:48:45.620Z,166.50
2022-11-03T20:50:18.265Z,164.75
2022-11-03T20:51:50.486Z,158.75
2022-11-03T20:53:23.356Z,160.50
2022-11-03T20:54:55.544Z,156.00
2022-11-03T20:56:28.186Z,161.25
2022-11-03T20:58:00.732Z,157.00
2022-11-03T20:59:34.666Z,151.25
2022-11-03T21:01:33.300Z,184.50
2022-11-03T21:03:45.164Z,179.75
2022-11-03T21:05:23.529Z,181.75
2022-11-03T21:06:55.510Z,167.25
2022-11-03T21:08:27.490Z,171.00
2022-11-03T21:09:59.591Z,169.25
2022-11-03T21:11:35.347Z,176.75
2022-11-03T21:13:14.601Z,175.25
2022-11-03T21:15:05.154Z,174.50
2022-11-03T21:17:06.476Z,175.50
2022-11-03T21:18:57.272Z,165.50
2022-11-03T21:20:29.424Z,166.00
2022-11-03T21:22:01.181Z,171.00
2022-11-03T21:23:34.728Z,160.50
2022-11-03T21:25:11.681Z,163.00
2022-11-03T21:26:43.889Z,159.75
2022-11-03T21:28:19.492Z,163.75
2022-11-03T21:29:59.485Z,155.50
2022-11-03T21:31:32.343Z,153.00
2022-11-03T21:33:04.033Z,147.75
2022-11-03T21:34:35.774Z,206.33
2022-11-03T21:36:07.795Z,163.50
2022-11-03T21:37:39.549Z,153.75
2022-11-03T21:39:12.134Z,148.00
2022-11-03T21:40:44.884Z,141.00
2022-11-03T21:42:35.164Z,149.75
2022-11-03T21:44:17.090Z,149.75
2022-11-03T21:45:48.872Z,146.25
2022-11-03T21:47:21.353Z,149.25
2022-11-03T21:49:11.566Z,149.50
2022-11-03T21:50:43.360Z,141.00
2022-11-03T21:52:16.870Z,140.25
2022-11-03T21:53:48.704Z,149.50
2022-11-03T21:55:20.397Z,137.75
2022-11-03T21:56:52.110Z,147.75
2022-11-03T21:58:23.886Z,149.50
2022-11-03T21:59:59.060Z,143.25
2022-11-03T22:01:31.159Z,150.50
2022-11-03T22:03:03.031Z,155.25
2022-11-03T22:04:36.574Z,157.75
2022-11-03T22:06:09.434Z,149.50
2022-11-03T22:07:41.152Z,152.50
2022-11-03T22:09:12.983Z,157.25
2022-11-03T22:10:44.718Z,156.75
2022-11-03T22:12:16.444Z,170.25
2022-11-03T22:13:58.425Z,170.00
2022-11-03T22:15:48.565Z,170.25
2022-11-03T22:17:20.222Z,176.50
2022-11-03T22:18:51.906Z,159.25
2022-11-03T22:20:42.237Z,160.00
2022-11-03T22:22:33.167Z,166.25
2022-11-03T22:24:23.199Z,170.00
2022-11-03T22:26:13.357Z,172.00
2022-11-03T22:27:45.159Z,171.00
2022-11-03T22:29:35.586Z,177.75
2022-11-03T22:31:25.710Z,168.25
2022-11-03T22:32:58.076Z,173.00
2022-11-03T22:34:48.500Z,185.75
2022-11-03T22:36:26.005Z,170.50
2022-11-03T22:38:05.320Z,171.00
2022-11-03T22:39:55.946Z,184.75
2022-11-03T22:41:46.077Z,170.75
2022-11-03T22:43:36.485Z,182.50
2022-11-03T22:45:28.201Z,170.75
2022-11-03T22:47:02.731Z,181.00
2022-11-03T22:48:35.027Z,167.50
2022-11-03T22:50:06.956Z,162.50
2022-11-03T22:51:38.679Z,175.00
2022-11-03T22:53:28.650Z,168.50
2022-11-03T22:55:00.409Z,157.75
2022-11-03T22:56:32.494Z,167.25
2022-11-03T22:58:04.224Z,162.25
2022-11-03T22:59:35.957Z,162.75
2022-11-03T23:01:09.717Z,155.75
2022-11-03T23:02:41.479Z,160.25
2022-11-03T23:04:13.300Z,151.75
2022-11-03T23:05:45.061Z,153.00
2022-11-03T23:07:16.807Z,161.25
2022-11-03T23:08:48.974Z,152.00
2022-11-03T23:10:22.979Z,144.50
2022-11-03T23:11:55.037Z,148.00
2022-11-03T23:13:26.765Z,146.25
2022-11-03T23:15:17.196Z,142.50
2022-11-03T23:16:48.868Z,135.00
2022-11-03T23:18:38.995Z,142.50
2022-11-03T23:20:30.964Z,145.25
2022-11-03T23:22:02.657Z,122.00
2022-11-03T23:23:56.913Z,133.75
2022-11-03T23:25:28.602Z,74.75
2022-11-03T23:27:00.524Z,128.00
2022-11-03T23:28:32.305Z,121.50
2022-11-03T23:30:04.425Z,126.25
2022-11-03T23:31:36.671Z,114.50
2022-11-03T23:33:08.598Z,118.00
2022-11-03T23:34:40.579Z,109.25
